Latest Weather Observations for Southern Cross Airport

IDW60801

Issued at 8:05 am WST Wednesday 1 October 2014 (issued every 30 minutes, with the page automatically refreshed every 10 minutes)

About weather observations | Map of weather stations | Latest weather observations for WA | Other Formats
Station Details ID: 012320 Name: SOUTHERN CROSS AIRFIELD Lat: -31.24 Lon: 119.36 Height: 347.4 m
Data from the previous 72 hours. | See also: Recent months at Southern Cross Airport
Date/Time
WST
Temp
°C
App
Temp
°C
Dew
Point
Rel
Hum
%
Delta-T
°C
Wind Press
QNH
hPa
Press
MSL
hPa
Rain
since 9 am
mm
Dir
 
Spd
km/h
Gust
km/h
Spd
kts
Gust
kts
01/08:00am 18.4 12.7 6.6 46 6.0 ENE 26 35 14 19 1022.9 1022.1 0.0
01/07:30am 17.2 12.6 6.7 50 5.3 ENE 20 33 11 18 1023.1 1022.9 0.0
01/07:00am 15.7 12.4 6.2 53 4.7 E 13 20 7 11 1022.9 1022.7 0.0
01/06:30am 14.5 11.4 5.6 55 4.3 E 11 19 6 10 1022.7 1022.5 0.0
01/06:00am 13.4 10.2 5.3 58 3.8 E 11 15 6 8 1022.3 1022.1 0.0
01/05:30am 12.8 10.0 5.2 60 3.6 SE 9 15 5 8 1021.9 1021.7 0.0
01/05:00am 13.2 10.1 5.4 59 3.7 ESE 11 15 6 8 1021.7 1021.5 0.0
01/04:30am 13.7 10.9 5.1 56 4.1 E 9 15 5 8 1021.4 1021.2 0.0
01/04:00am 14.5 10.6 5.3 54 4.4 ENE 15 24 8 13 1021.2 1020.9 0.0
01/03:30am 15.5 11.2 5.4 51 4.9 E 17 24 9 13 1020.4 1020.2 0.0
01/03:00am 15.4 12.3 5.6 52 4.8 E 11 19 6 10 1021.2 1020.9 0.0
01/02:30am 13.8 11.6 5.2 56 4.1 S 6 9 3 5 1021.3 1021.0 0.0
01/02:00am 15.5 12.8 5.7 52 4.8 SE 9 13 5 7 1021.3 1021.0 0.0
01/01:30am 15.9 12.9 5.8 51 5.0 E 11 17 6 9 1021.6 1021.4 0.0
01/01:00am 16.0 12.2 5.6 50 5.1 E 15 24 8 13 1021.7 1021.5 0.0
01/12:30am 16.2 11.6 5.5 49 5.2 E 19 24 10 13 1021.7 1021.5 0.0
01/12:00am 16.6 11.9 5.3 47 5.5 E 19 28 10 15 1021.9 1021.7 0.0
 
Date/Time
WST
Temp
°C
App
Temp
°C
Dew
Point
Rel
Hum
%
Delta-T
°C
Wind Press
QNH
hPa
Press
MSL
hPa
Rain
since 9 am
mm
Dir
 
Spd
km/h
Gust
km/h
Spd
kts
Gust
kts
30/11:30pm 17.1 12.2 5.1 45 5.8 E 20 28 11 15 1022.1 1021.9 0.0
30/11:00pm 17.6 12.3 5.2 44 6.1 E 22 28 12 15 1022.1 1021.9 0.0
30/10:30pm 18.2 13.9 5.1 42 6.4 E 17 24 9 13 1022.1 1021.9 0.0
30/10:00pm 18.4 13.6 4.6 40 6.7 E 19 26 10 14 1022.3 1022.1 0.0
30/09:30pm 18.5 13.6 3.9 38 7.0 E 19 26 10 14 1022.4 1022.2 0.0
30/09:00pm 19.3 14.7 3.9 36 7.4 E 17 24 9 13 1022.3 1022.1 0.0
30/08:30pm 19.9 15.3 3.6 34 7.9 ESE 17 24 9 13 1022.2 1022.0 0.0
30/08:00pm 19.9 15.7 3.6 34 7.8 ESE 15 22 8 12 1022.0 1021.8 0.0
30/07:30pm 19.4 15.5 3.2 34 7.7 ESE 13 17 7 9 1021.7 1021.5 0.0
30/07:00pm 20.5 16.9 2.8 31 8.4 ESE 11 15 6 8 1021.2 1020.9 0.0
30/06:30pm 22.2 18.6 2.8 28 9.4 ESE 11 15 6 8 1020.8 1020.5 0.0
30/06:00pm 23.6 19.5 2.4 25 10.2 ESE 13 17 7 9 1020.5 1020.3 0.0
30/05:30pm 24.6 20.1 2.1 23 10.9 E 15 20 8 11 1020.3 1020.1 0.0
30/05:00pm 25.1 20.8 1.3 21 11.4 E 13 22 7 12 1020.2 1020.0 0.0
30/04:30pm 25.3 21.8 3.3 24 11.0 E 11 17 6 9 1020.2 1020.0 0.0
30/04:00pm 25.2 22.6 4.3 26 10.6 SSE 7 13 4 7 1020.2 1020.0 0.0
30/03:30pm 25.5 22.1 4.0 25 10.9 ESE 11 20 6 11 1020.2 1020.0 0.0
30/03:00pm 24.7 21.3 3.9 26 10.4 E 11 20 6 11 1020.1 1019.9 0.0
30/02:30pm 24.2 20.9 4.6 28 9.9 E 11 20 6 11 1020.2 1020.0 0.0
30/02:00pm 24.0 19.6 4.9 29 9.7 E 17 30 9 16 1020.7 1020.4 0.0
30/01:30pm 23.7 20.1 3.1 26 10.1 E 11 20 6 11 1020.9 1020.6 0.0
30/01:00pm 22.5 18.1 4.5 31 9.0 ENE 17 24 9 13 1021.3 1021.0 0.0
30/12:30pm 21.8 18.6 5.3 34 8.3 E 11 24 6 13 1021.7 1021.5 0.0
30/12:00pm 20.8 17.6 5.2 36 7.8 ESE 11 20 6 11 1022.1 1021.9 0.0
30/11:30am 20.1 16.7 7.8 45 6.4 E 15 20 8 11 1022.4 1022.2 0.0
30/11:00am 18.8 15.9 8.2 50 5.5 E 13 24 7 13 1022.9 1022.7 0.0
30/10:30am 18.3 15.1 8.3 52 5.2 E 15 20 8 11 1023.2 1023.0 0.0
30/10:00am 17.6 13.8 9.0 57 4.5 E 19 24 10 13 1023.4 1023.2 0.0
30/09:30am 16.9 14.0 8.3 57 4.5 SE 13 20 7 11 1023.5 1023.3 0.0
30/09:00am 16.3 12.5 7.5 56 4.5 SE 17 22 9 12 1023.5 1023.3 0.0
30/08:30am 15.5 12.2 8.0 61 3.8 E 15 22 8 12 1023.3 1023.1 0.0
30/08:00am 14.4 10.0 7.2 62 3.6 SE 20 28 11 15 1023.2 1023.0 0.0
30/07:30am 13.2 8.3 7.0 66 3.1 SE 22 30 12 16 1023.0 1022.8 0.0
30/07:00am 11.3 10.4 7.8 79 1.7 S 2 7 1 4 1022.7 1022.5 0.0
30/06:30am 8.3 6.4 6.9 91 0.7 S 6 7 3 4 1022.5 1022.3 0.0
30/06:00am 6.4 4.5 4.9 90 0.7 SSW 4 6 2 3 1022.3 1022.1 0.0
30/05:30am 7.5 5.3 6.0 90 0.7 S 7 9 4 5 1022.0 1021.8 0.0
30/05:00am 7.1 4.9 5.3 88 0.8 S 6 9 3 5 1021.7 1021.5 0.0
30/04:30am 7.9 5.8 5.9 87 0.9 SSE 6 7 3 4 1021.4 1021.2 0.0
30/04:00am 9.1 7.0 6.7 85 1.1 S 7 9 4 5 1021.1 1020.8 0.0
30/03:30am 9.0 7.8 6.6 85 1.1 NE 2 7 1 4 1020.9 1020.6 0.0
30/03:00am 10.6 8.8 7.8 83 1.4 S 7 9 4 5 1020.5 1020.3 0.0
30/02:30am 10.7 9.0 7.6 81 1.5 S 6 7 3 4 1020.4 1020.2 0.0
30/02:00am 11.7 9.6 8.2 79 1.7 S 9 9 5 5 1020.3 1020.1 0.0
30/01:30am 12.0 10.5 8.3 78 1.9 S 6 7 3 4 1020.3 1020.1 0.0
30/01:00am 12.5 10.8 8.2 75 2.2 SSW 7 9 4 5 1020.2 1020.0 0.0
30/12:30am 13.4 10.3 8.7 73 2.4 SSW 15 22 8 12 1020.2 1020.0 0.0
30/12:00am 14.2 10.1 8.8 70 2.8 SSW 20 30 11 16 1020.2 1020.0 0.0
 
Date/Time
WST
Temp
°C
App
Temp
°C
Dew
Point
Rel
Hum
%
Delta-T
°C
Wind Press
QNH
hPa
Press
MSL
hPa
Rain
since 9 am
mm
Dir
 
Spd
km/h
Gust
km/h
Spd
kts
Gust
kts
29/11:30pm 14.8 10.8 9.2 69 2.9 S 20 26 11 14 1020.3 1020.1 0.0
29/11:00pm 15.2 11.4 8.9 66 3.3 SSW 19 28 10 15 1020.1 1019.9 0.0
29/10:30pm 15.4 11.9 8.6 64 3.5 SW 17 20 9 11 1020.0 1019.8 0.0
29/10:00pm 15.2 12.0 8.4 64 3.5 WSW 15 19 8 10 1019.8 1019.6 0.0
29/09:30pm 14.3 11.2 7.1 62 3.6 WSW 13 15 7 8 1019.5 1019.3 0.0
29/09:00pm 15.2 12.4 7.0 58 4.1 WSW 11 13 6 7 1019.4 1019.2 0.0
29/08:30pm 16.5 14.5 6.9 53 4.8 WSW 7 9 4 5 1019.1 1018.9 0.0
29/08:00pm 16.5 14.1 6.9 53 4.8 WSW 9 9 5 5 1018.9 1018.7 0.0
29/07:30pm 17.2 14.7 6.7 50 5.3 WSW 9 11 5 6 1018.4 1018.1 0.0
29/07:00pm 17.6 14.7 6.5 48 5.6 WSW 11 13 6 7 1018.0 1017.7 0.0
29/06:30pm 19.3 16.0 6.4 43 6.6 WSW 13 20 7 11 1017.4 1017.2 0.0
29/06:00pm 20.6 16.1 6.2 39 7.3 W 19 26 10 14 1017.0 1016.8 0.0
29/05:30pm 21.5 16.4 6.2 37 7.8 WSW 22 32 12 17 1016.7 1016.5 0.0
29/05:00pm 22.3 17.1 5.7 34 8.5 W 22 24 12 13 1016.2 1015.9 0.0
29/04:30pm 22.3 16.8 5.7 34 8.5 W 24 35 13 19 1016.0 1015.7 0.0
29/04:00pm 23.3 17.4 5.7 32 9.0 W 26 32 14 17 1016.0 1015.7 0.0
29/03:30pm 23.3 17.8 5.7 32 9.0 WSW 24 33 13 18 1015.8 1015.5 0.0
29/03:00pm 23.0 17.4 5.4 32 9.0 W 24 35 13 19 1015.9 1015.6 0.0
29/02:30pm 24.0 18.5 5.8 31 9.4 WSW 24 37 13 20 1016.0 1015.7 0.0
29/02:00pm 22.6 16.6 5.1 32 8.8 W 26 39 14 21 1016.2 1015.9 0.0
29/01:30pm 22.2 15.9 5.6 34 8.5 W 28 39 15 21 1016.4 1016.1 0.0
29/01:00pm 22.0 16.4 7.0 38 7.8 WSW 26 35 14 19 1016.5 1016.3 0.0
29/12:30pm 22.2 17.9 8.0 40 7.6 WNW 20 30 11 16 1016.8 1016.6 0.0
29/12:00pm 21.0 16.3 7.6 42 7.0 W 22 32 12 17 1016.8 1016.6 0.0
29/11:30am 21.0 15.3 8.3 44 6.8 W 28 35 15 19 1017.1 1016.9 0.0
29/11:00am 20.4 15.6 8.7 47 6.2 WNW 24 33 13 18 1017.4 1017.2 0.0
29/10:30am 18.4 12.6 8.1 51 5.4 W 28 33 15 18 1017.5 1017.3 0.0
29/10:00am 18.8 15.2 9.8 56 4.9 WNW 19 24 10 13 1017.8 1017.5 0.0
29/09:30am 18.1 14.4 10.0 59 4.4 WSW 20 30 11 16 1018.1 1017.8 0.0
29/09:00am 16.8 13.6 10.0 64 3.6 W 17 22 9 12 1018.0 1017.7 0.0
29/08:30am 15.6 11.9 10.2 70 2.9 W 20 28 11 15 1018.0 1017.7 0.0
29/08:00am 14.3 11.4 9.7 74 2.4 W 15 20 8 11 1017.5 1017.3 0.0
29/07:30am 13.0 11.0 10.0 82 1.6 WNW 11 15 6 8 1017.7 1017.4 0.0
29/07:00am 10.7 9.4 9.1 90 0.8 NNW 6 9 3 5 1017.7 1017.4 0.0
29/06:30am 9.4 9.0 8.3 93 0.5 CALM 0 0 0 0 1017.4 1017.2 0.0
29/06:00am 7.5 6.3 6.4 93 0.5 NNW 2 6 1 3 1017.1 1016.9 0.0
29/05:30am 8.1 6.3 7.0 93 0.5 N 6 9 3 5 1016.9 1016.7 0.0
29/05:00am 7.4 6.4 5.5 88 0.9 CALM 0 6 0 3 1016.6 1016.4 0.0
29/04:30am 9.3 8.4 7.7 90 0.8 WSW 2 6 1 3 1016.5 1016.3 0.0
29/04:00am 10.0 7.5 8.3 89 0.8 W 11 15 6 8 1016.4 1016.1 0.0
29/03:30am 10.4 7.6 8.5 88 0.9 W 13 17 7 9 1016.3 1016.0 0.0
29/03:00am 10.8 7.6 8.6 86 1.1 W 15 19 8 10 1016.5 1016.3 0.0
29/02:30am 11.1 8.3 8.7 85 1.2 W 13 17 7 9 1016.5 1016.3 0.0
29/02:00am 11.0 8.6 8.6 85 1.2 W 11 15 6 8 1016.6 1016.4 0.0
29/01:30am 10.7 8.5 7.9 83 1.4 W 9 13 5 7 1016.7 1016.5 0.0
29/01:00am 10.9 8.4 8.0 82 1.4 WSW 11 13 6 7 1016.8 1016.6 0.0
29/12:30am 11.2 7.9 7.9 80 1.6 WSW 15 20 8 11 1016.7 1016.5 0.0
29/12:00am 10.9 8.5 7.0 77 1.9 WSW 9 11 5 6 1016.7 1016.5 0.0
 
Date/Time
WST
Temp
°C
App
Temp
°C
Dew
Point
Rel
Hum
%
Delta-T
°C
Wind Press
QNH
hPa
Press
MSL
hPa
Rain
since 9 am
mm
Dir
 
Spd
km/h
Gust
km/h
Spd
kts
Gust
kts
28/11:30pm 12.0 10.0 7.1 72 2.4 SW 7 9 4 5 1016.9 1016.7 0.0
28/11:00pm 12.3 10.4 7.4 72 2.4 W 7 9 4 5 1017.1 1016.9 0.0
28/10:30pm 12.8 10.0 7.0 68 2.9 W 11 13 6 7 1017.2 1017.0 0.0
28/10:00pm 13.7 10.6 7.2 65 3.2 W 13 15 7 8 1017.4 1017.2 0.0
28/09:30pm 12.3 9.6 5.5 63 3.2 WNW 9 15 5 8 1017.5 1017.3 0.0
28/09:00pm 13.9 11.6 5.8 58 3.9 WNW 7 7 4 4 1017.5 1017.3 0.0
28/08:30pm 14.1 11.4 5.7 57 4.1 WNW 9 9 5 5 1017.5 1017.3 0.0
28/08:00pm 15.0 12.3 5.8 54 4.5 W 9 9 5 5 1017.4 1017.2 0.0
28/07:30pm 16.1 13.0 5.7 50 5.1 WSW 11 13 6 7 1017.2 1017.0 0.0
28/07:00pm 17.1 13.7 5.7 47 5.6 WSW 13 17 7 9 1016.9 1016.7 0.0
28/06:30pm 18.3 14.4 5.5 43 6.3 WSW 15 19 8 10 1016.7 1016.5 0.0
28/06:00pm 19.0 14.4 5.5 41 6.7 WSW 19 26 10 14 1016.3 1016.0 0.0
28/05:30pm 19.4 14.8 5.5 40 6.9 WSW 19 28 10 15 1016.2 1015.9 0.0
28/05:00pm 20.4 15.7 5.2 37 7.6 W 19 28 10 15 1016.0 1015.7 0.0
28/04:30pm 20.1 15.7 5.0 37 7.5 W 17 26 9 14 1015.9 1015.6 0.0
28/04:00pm 21.5 17.3 5.8 36 8.0 WSW 17 24 9 13 1015.7 1015.4 0.0
28/03:30pm 20.8 15.5 5.2 36 7.8 SW 22 32 12 17 1015.6 1015.3 0.0
28/03:00pm 20.8 15.5 5.2 36 7.8 W 22 33 12 18 1015.8 1015.5 0.0
28/02:30pm 20.4 15.6 5.6 38 7.5 W 20 28 11 15 1015.9 1015.6 0.0
28/02:00pm 20.8 15.8 6.4 39 7.4 W 22 32 12 17 1016.0 1015.7 0.0
28/01:30pm 20.6 15.6 6.5 40 7.2 WSW 22 33 12 18 1016.2 1015.9 0.0
28/01:00pm 20.6 16.1 6.2 39 7.3 W 19 33 10 18 1016.3 1016.0 0.0
28/12:30pm 19.4 14.6 5.8 41 6.8 W 20 33 11 18 1016.6 1016.4 0.0
28/12:00pm 19.7 14.8 6.8 43 6.6 W 22 33 12 18 1017.0 1016.8 0.0
28/11:30am 18.6 13.9 6.1 44 6.3 W 20 30 11 16 1017.1 1016.9 0.0
28/11:00am 17.2 11.1 6.4 49 5.4 SW 28 33 15 18 1017.3 1017.1 0.0
28/10:30am 17.5 11.7 6.4 48 5.6 W 26 39 14 21 1017.4 1017.2 0.0
28/10:00am 17.4 11.6 6.3 48 5.5 W 26 33 14 18 1017.5 1017.3 0.0
28/09:30am 16.0 9.4 6.2 52 4.8 W 30 46 16 25 1017.4 1017.2 0.0
28/09:25am 16.2 10.1 6.6 53 4.8 W 28 46 15 25 1017.4 1017.2 0.0
28/09:00am 15.5 9.9 7.0 57 4.3 WNW 26 33 14 18 1017.5 1017.3 1.4
28/08:30am 14.6 8.5 6.7 59 3.9 W 28 37 15 20 1017.5 1017.3 1.4

Other Formats:

Comma delimited format used in spreadsheet applications
http://www.bom.gov.au/fwo/IDW60801/IDW60801.95634.axf

JavaScript Object Notation format (JSON) in row-major order
http://www.bom.gov.au/fwo/IDW60801/IDW60801.95634.json